Главная страница
METAR-TAF:

METAR-TAF

Аэропорты :

Hagerstown, Мэриленд, США

широта: 39-42-21N, долгота: 077-43-48W, высота над уровнем моря: 214 м

Текущие метеонаблюдения

Эта сводка был подготовлена 25 минут назад, в 13:53 UTC
Ветер 8 Узел от юго-юго-восточный
Температура 14°C
Влажность 94%
Давление 1000 hPa
Видимость: 4.8 км
Сплошная облачность на высоте 700 фута
дымка

METAR: KHGR 261353Z 15008KT 3SM BR OVC007 14/13 A2953 RMK AO2 LTG DSNT NE RAE15 SLP006 P0001 T01440128

Время: 10:18 (14:18 UTC)


TAF: отсутствует

Метеонаблюдения и прогнозы для более 4000 аэропортов (сводки METAR и TAF).

Имеющиеся станции представлены на карте желтыми и красными точками.

Чтобы увидеть название станции, наведите на нее мышь.

Затем щелкните, чтобы увидеть метеонаблюдения и метеопрогнозы.

Управление картой: чтобы увеличить масштаб, щелкните зеленые кнопки с черным крестиком; чтобы уменьшить масштаб, щелкните зеленую кнопку с тире; для просмотра соседних карт щелкайте зеленые стрелки.


METAR-TAF: